Aviation Digital Data Service (ADDS)

Output produced by METARs form (2323 UTC 22 December 2014)
found at http://www.aviationweather.gov/adds/metars/
 
KJST 222316Z AUTO 16012KT 2SM -FZRA BR BKN005 OVC020 M02/M03 A3003 RMK AO2 P0000 I1002 T10171028
KJST 222254Z AUTO 15008KT 1 3/4SM -FZRA BR SCT007 OVC019 M02/M03 A3003 RMK AO2 UPB05E08FZRAB08 SLP199 P0000 I1004 T10171033
KJST 222245Z AUTO 15007KT 1 3/4SM -FZRA BR BKN007 OVC017 M02/M03 A3003 RMK AO2 UPB05E08FZRAB08 CIG 005V009 P0000 I1003 T10171033
KJST 222236Z AUTO 14007KT 2SM -FZRA BR BKN008 OVC017 M02/M03 A3003 RMK AO2 UPB05E08FZRAB08 CIG 005V010 P0000 I1002 T10171033
KJST 222214Z AUTO 15007KT 3SM -FZRA BR BKN009 OVC014 M02/M04 A3003 RMK AO2 UPB05E08FZRAB08 P0000 I1001 T10171039
KJST 222203Z AUTO 16006KT 4SM BR BKN011 OVC039 M02/M04 A3003 RMK AO2 I1000 T10171039
KJST 222154Z AUTO 17007KT 4SM BR SCT011 OVC039 M02/M04 A3003 RMK AO2 UPB24E39 SLP197 P0000 T10171039
KJST 222054Z AUTO 14006KT 7SM FEW012 OVC050 M01/M05 A3003 RMK AO2 SLP196 T10111050
KJST 221954Z AUTO 13005KT 7SM SCT009 OVC065 M01/M05 A3003
KJST 221949Z AUTO 14004KT 6SM HZ SCT009 OVC070 M01/M05 A3003 RMK AO2
KJST 221854Z AUTO 16011G17KT 6SM HZ OVC011 M01/M05 A3005 RMK AO2 CIG 009V013 SLP204 T10111050 $
KJST 221841Z AUTO 16012KT 7SM BKN011 M01/M04 A3006 RMK AO2 T10111044 $
KJST 221754Z AUTO 15010KT 8SM CLR M01/M04 A3006 RMK AO2 SLP207 T10061044 11006 21056 58022 $
KJST 221654Z AUTO 15010KT 7SM CLR M01/M04 A3009 RMK AO2 SLP217 T10111044
KJST 221634Z AUTO 14007KT 6SM HZ SCT009 SCT075 M02/M04 A3010 RMK AO2 T10171044
KJST 221554Z AUTO 16010KT 5SM HZ OVC009 M02/M05 A3013 RMK AO2 SLP234 T10221050
KJST 221537Z AUTO 17009KT 6SM HZ BKN010 M02/M05 A3013 RMK AO2 T10221050
KJST 221454Z AUTO 16007KT 6SM HZ CLR M03/M06 A3013
KJST 221354Z AUTO 16006KT 5SM BR CLR M04/M06 A3012 RMK AO2 SLP231 T10391061
KJST 221254Z AUTO 17008KT 5SM BR CLR M06/M08 A3013 RMK AO2 SLP236 T10561078
KJST 221154Z AUTO 19004KT 6SM BR CLR M06/M08 A3011 RMK AO2 SLP228 T10561078 11044 21061 55001
KJST 221054Z AUTO 18003KT 6SM BR CLR M06/M08 A3011 RMK AO2 SLP228 T10561078
KJST 220954Z AUTO 17003KT 7SM CLR M05/M07 A3010 RMK AO2 SLP224 T10501072
KJST 220854Z AUTO 13006KT 7SM CLR M05/M08 A3011 RMK AO2 SLP227 T10501078 58011
KJST 220754Z AUTO 16007KT 8SM CLR M05/M08 A3014 RMK AO2 SLP235 T10501078
KJST 220654Z AUTO 16008KT 9SM CLR M04/M08 A3015 RMK AO2 SLP239 T10441078
KJST 220554Z AUTO 17007KT 10SM CLR M05/M08 A3015 RMK AO2 SLP240 T10501083 11039 21056 58010
KJST 220454Z AUTO 16007KT 10SM CLR M05/M08 A3016 RMK AO2 SLP243 T10501083 410061050
KJST 220354Z AUTO 00000KT 10SM CLR M04/M08 A3018 RMK AO2 SLP250 T10441078
KJST 220254Z AUTO 13004KT 10SM CLR M05/M08 A3018 RMK AO2 SLP252 T10501078 56001
KJST 220154Z AUTO 00000KT 10SM CLR M04/M08 A3018 RMK AO2 SLP252 T10441078
KJST 220054Z AUTO 08004KT 10SM CLR M04/M08 A3017 RMK AO2 SLP249 T10441078
KJST 212354Z AUTO 07005KT 10SM CLR M04/M07 A3018 RMK AO2 SLP253 T10391072 11006 21039 50005
KJST 212254Z AUTO 07005KT 10SM CLR M03/M07 A3019 RMK AO2 SLP253 T10331072
KJST 212154Z AUTO 07005KT 10SM CLR M03/M07 A3017 RMK AO2 SLP248 T10281072
KJST 212054Z AUTO 04004KT 10SM CLR M01/M06 A3017 RMK AO2 SLP245 T10111061 56009
KJST 211954Z AUTO 00000KT 10SM CLR M01/M06 A3017 RMK AO2 SLP247 T10111061
KJST 211931Z AUTO 35003KT 10SM SCT018 M01/M07 A3017 RMK AO2 T10111067
KJST 211854Z AUTO 04005KT 10SM BKN017 M01/M06 A3018 RMK AO2 SLP250 T10111061
KJST 211811Z AUTO 00000KT 10SM BKN015 M02/M07 A3020 RMK AO2 T10221067
KJST 211754Z AUTO 00000KT 10SM BKN014 M03/M07 A3020 RMK AO2 SLP257 T10281072 11022 21050 58013
KJST 211654Z AUTO VRB04KT 10SM OVC013 M03/M07 A3022 RMK AO2 SLP263 T10281067
KJST 211554Z AUTO 27004KT 10SM OVC013 M04/M07 A3024 RMK AO2 SLP272 T10391072
KJST 211506Z AUTO 29003KT 10SM OVC014 M04/M07 A3024 RMK AO2 T10441072
KJST 211454Z AUTO 32004KT 10SM OVC015 M04/M07 A3024 RMK AO2 SLP272 T10441072 51010
KJST 211435Z AUTO 29005KT 10SM OVC017 M04/M07 A3024 RMK AO2 T10441072
KJST 211354Z AUTO 30005KT 8SM BKN013 BKN018 OVC060 M04/M07 A3023 RMK AO2 SLP268 T10441072
KJST 211336Z AUTO 30005KT 7SM BKN017 OVC060 M04/M07 A3022 RMK AO2 T10441072
KJST 211254Z AUTO 28004KT 5SM BR FEW016 OVC055 M05/M07 A3022 RMK AO2 SLP268 T10501067
KJST 211212Z AUTO 25003KT 6SM BR SCT015 OVC055 M05/M07 A3021 RMK AO2 T10501067
KJST 211154Z AUTO 27003KT 6SM BR OVC015 M05/M07 A3020 RMK AO2 SLP263 T10501072 11050 21050 53006